Forbing, Louisiana
Current Conditions -  °F | °C
As of 9:56 AM on Monday 26 Jan 2015 (Local Time) from KSHV Reporting Station
Clear Clear  
Wind Chill: 47°   Ceiling: Unl
Heat Index: 49°   Visibility: 10mi
Dew Point: 34°   Wind: 6mph
Humidity: 56%   Direction: 330°NNW
Pressure: 30.21"   Gusts: NA
Location:  32.3873°N, 93.7356°W
Report Text: KSHV 261556Z 33005KT 10SM CLR 09/01 A3021 RMK AO2 SLP230 T00940011
Loading
Personal Weather Stations






























Interactive Weather Map New forecast layout! Learn more

10-Day Weather Forecast

Advertisements
Track Severe Weather on mobile